createdAt,value
2023-02-24T00:02:15.055Z,33.67
2023-02-24T00:04:45.285Z,35.30
2023-02-24T00:07:12.974Z,36.27
2023-02-24T00:09:40.582Z,36.40
2023-02-24T00:12:11.202Z,35.90
2023-02-24T00:14:41.161Z,35.97
2023-02-24T00:17:10.272Z,35.53
2023-02-24T00:19:38.534Z,36.17
2023-02-24T00:22:07.613Z,36.20
2023-02-24T00:24:36.122Z,36.47
2023-02-24T00:27:07.797Z,35.27
2023-02-24T00:29:37.577Z,38.13
2023-02-24T00:32:08.007Z,38.77
2023-02-24T00:34:38.766Z,37.87
2023-02-24T00:37:07.112Z,35.50
2023-02-24T00:39:36.106Z,36.87
2023-02-24T00:42:06.044Z,35.20
2023-02-24T00:44:36.308Z,37.47
2023-02-24T00:47:05.422Z,34.97
2023-02-24T00:49:35.726Z,36.90
2023-02-24T00:52:04.711Z,35.00
2023-02-24T00:54:38.227Z,38.00
2023-02-24T00:57:10.905Z,35.73
2023-02-24T00:59:39.307Z,34.97
2023-02-24T01:02:07.768Z,37.77
2023-02-24T01:04:37.686Z,36.37
2023-02-24T01:07:10.551Z,37.90
2023-02-24T01:09:41.669Z,38.53
2023-02-24T01:12:38.036Z,38.90
2023-02-24T01:15:11.331Z,38.10
2023-02-24T01:17:40.515Z,34.67
2023-02-24T01:20:16.986Z,35.63
2023-02-24T01:22:50.297Z,35.77
2023-02-24T01:25:20.291Z,36.87
2023-02-24T01:27:48.545Z,35.63
2023-02-24T01:30:18.097Z,38.73
2023-02-24T01:32:47.310Z,34.60
2023-02-24T01:35:15.880Z,38.50
2023-02-24T01:37:43.586Z,34.47
2023-02-24T01:40:20.616Z,37.73
2023-02-24T01:42:49.314Z,36.70
2023-02-24T01:45:21.758Z,34.80
2023-02-24T01:47:50.567Z,31.13
2023-02-24T01:50:22.196Z,32.07
2023-02-24T01:52:52.677Z,34.53
2023-02-24T01:55:26.763Z,36.43
2023-02-24T01:57:56.113Z,32.77
2023-02-24T02:00:32.630Z,37.60
2023-02-24T02:03:08.125Z,31.20
2023-02-24T02:05:38.076Z,34.03
2023-02-24T02:08:05.855Z,35.23
2023-02-24T02:10:34.063Z,31.93
2023-02-24T02:13:04.468Z,33.97
2023-02-24T02:15:36.043Z,35.33
2023-02-24T02:18:14.134Z,33.33
2023-02-24T02:21:15.326Z,33.63
2023-02-24T02:23:55.084Z,33.77
2023-02-24T02:26:50.019Z,37.40
2023-02-24T02:29:39.295Z,34.27
2023-02-24T02:32:25.530Z,31.00
2023-02-24T02:34:59.056Z,33.03
2023-02-24T02:37:33.141Z,34.53
2023-02-24T02:40:00.719Z,34.30
2023-02-24T02:42:38.877Z,32.13
2023-02-24T02:45:13.341Z,34.70
2023-02-24T02:48:01.172Z,35.10
2023-02-24T02:50:35.862Z,34.27
2023-02-24T02:53:19.218Z,32.37
2023-02-24T02:56:02.596Z,35.57
2023-02-24T02:58:36.102Z,36.63
2023-02-24T03:01:07.195Z,33.40
2023-02-24T03:03:46.380Z,38.00
2023-02-24T03:06:21.922Z,36.97
2023-02-24T03:09:03.252Z,33.37
2023-02-24T03:11:32.505Z,39.87
2023-02-24T03:14:02.717Z,33.97
2023-02-24T03:16:32.723Z,37.33
2023-02-24T03:19:04.595Z,36.97
2023-02-24T03:21:40.894Z,38.43
2023-02-24T03:24:09.433Z,37.97
2023-02-24T03:26:59.802Z,35.00
2023-02-24T03:30:09.624Z,36.20
2023-02-24T03:32:59.373Z,33.40
2023-02-24T03:35:39.124Z,33.53
2023-02-24T03:38:10.047Z,33.50
2023-02-24T03:40:43.406Z,33.43
2023-02-24T03:43:19.489Z,37.70
2023-02-24T03:45:47.631Z,32.83
2023-02-24T03:48:16.303Z,34.07
2023-02-24T03:50:44.594Z,34.03
2023-02-24T03:53:12.124Z,37.40
2023-02-24T03:55:59.583Z,33.37
2023-02-24T03:58:38.564Z,33.03
2023-02-24T04:01:28.861Z,31.90
2023-02-24T04:04:00.421Z,35.30
2023-02-24T04:06:33.995Z,36.93
2023-02-24T04:09:10.782Z,38.60
2023-02-24T04:11:49.090Z,34.13
2023-02-24T04:14:19.730Z,37.07
2023-02-24T04:17:01.079Z,39.87
2023-02-24T04:19:38.301Z,36.10
2023-02-24T04:22:10.284Z,35.67
2023-02-24T04:24:40.655Z,36.00
2023-02-24T04:27:11.594Z,35.60
2023-02-24T04:29:47.181Z,36.67
2023-02-24T04:32:20.283Z,36.07
2023-02-24T04:34:48.606Z,36.37
2023-02-24T04:37:17.283Z,33.83
2023-02-24T04:39:46.033Z,37.80
2023-02-24T04:42:14.830Z,35.67
2023-02-24T04:44:42.836Z,38.27
2023-02-24T04:47:13.278Z,35.53
2023-02-24T04:49:44.516Z,34.17
2023-02-24T04:52:12.437Z,36.73
2023-02-24T04:54:40.020Z,34.50
2023-02-24T04:57:07.869Z,29.77
2023-02-24T04:59:40.665Z,35.47
2023-02-24T05:02:08.339Z,37.30
2023-02-24T05:04:38.903Z,32.63
2023-02-24T05:07:06.667Z,31.90
2023-02-24T05:09:34.254Z,33.77
2023-02-24T05:12:02.451Z,36.73
2023-02-24T05:14:31.123Z,37.43
2023-02-24T05:17:00.318Z,42.73
2023-02-24T05:19:49.128Z,39.97
2023-02-24T05:22:17.621Z,41.80
2023-02-24T05:24:47.860Z,33.57
2023-02-24T05:27:17.219Z,32.73
2023-02-24T05:29:44.883Z,36.53
2023-02-24T05:32:16.183Z,35.03
2023-02-24T05:34:43.917Z,38.87
2023-02-24T05:37:11.505Z,38.10
2023-02-24T05:39:39.106Z,36.83
2023-02-24T05:42:07.125Z,39.77
2023-02-24T05:44:35.644Z,39.97
2023-02-24T05:47:05.351Z,36.57
2023-02-24T05:49:38.822Z,38.30
2023-02-24T05:52:09.449Z,38.50
2023-02-24T05:54:45.279Z,39.97
2023-02-24T05:57:19.041Z,39.37
2023-02-24T05:59:49.368Z,39.40
2023-02-24T06:02:27.920Z,37.67
2023-02-24T06:04:55.912Z,38.53
2023-02-24T06:07:34.203Z,34.77
2023-02-24T06:10:04.812Z,36.70
2023-02-24T06:12:34.562Z,38.63
2023-02-24T06:15:07.529Z,36.17
2023-02-24T06:17:35.775Z,35.67
2023-02-24T06:20:15.645Z,33.27
2023-02-24T06:22:43.360Z,35.47
2023-02-24T06:25:14.225Z,37.07
2023-02-24T06:27:43.129Z,40.70
2023-02-24T06:30:11.598Z,36.90
2023-02-24T06:32:40.591Z,35.67
2023-02-24T06:35:09.180Z,35.07
2023-02-24T06:37:36.944Z,37.50
2023-02-24T06:40:17.728Z,34.43
2023-02-24T06:42:47.312Z,35.73
2023-02-24T06:45:16.163Z,35.50
2023-02-24T06:47:44.023Z,37.20
2023-02-24T06:50:12.408Z,35.13
2023-02-24T06:52:40.730Z,31.30
2023-02-24T06:55:25.152Z,37.30
2023-02-24T06:57:56.954Z,38.87
2023-02-24T07:00:36.843Z,36.77
2023-02-24T07:03:16.887Z,38.73
2023-02-24T07:05:50.493Z,37.60
2023-02-24T07:08:24.469Z,37.17
2023-02-24T07:10:57.953Z,36.70
2023-02-24T07:13:32.133Z,39.17
2023-02-24T07:16:06.699Z,37.70
2023-02-24T07:18:40.496Z,36.97
2023-02-24T07:21:11.530Z,38.33
2023-02-24T07:23:41.657Z,37.00
2023-02-24T07:26:27.985Z,37.43
2023-02-24T07:28:56.611Z,37.23
2023-02-24T07:31:26.097Z,37.37
2023-02-24T07:33:57.774Z,36.90
2023-02-24T07:36:29.814Z,36.97
2023-02-24T07:38:59.055Z,40.77
2023-02-24T07:41:26.765Z,37.00
2023-02-24T07:43:55.125Z,40.27
2023-02-24T07:46:25.110Z,39.50
2023-02-24T07:48:54.791Z,36.47
2023-02-24T07:51:25.046Z,38.43
2023-02-24T07:53:59.265Z,38.57
2023-02-24T07:56:29.146Z,39.53
2023-02-24T07:59:09.741Z,40.37
2023-02-24T08:01:45.407Z,35.37
2023-02-24T08:04:15.890Z,43.60
2023-02-24T08:06:46.143Z,39.97
2023-02-24T08:09:18.561Z,40.70
2023-02-24T08:11:54.155Z,38.50
2023-02-24T08:14:27.166Z,36.87
2023-02-24T08:16:59.956Z,35.73
2023-02-24T08:19:39.684Z,40.17
2023-02-24T08:22:19.985Z,38.33
2023-02-24T08:24:52.763Z,40.17
2023-02-24T08:27:25.727Z,37.13
2023-02-24T08:30:01.425Z,41.40
2023-02-24T08:32:43.762Z,37.88
2023-02-24T08:35:15.633Z,39.97
2023-02-24T08:37:53.020Z,39.70
2023-02-24T08:40:38.036Z,42.13
2023-02-24T08:43:16.200Z,38.00
2023-02-24T08:45:50.927Z,39.90
2023-02-24T08:48:32.418Z,37.73
2023-02-24T08:51:04.530Z,34.50
2023-02-24T08:53:40.293Z,34.70
2023-02-24T08:56:11.490Z,37.90
2023-02-24T08:58:56.916Z,32.40
2023-02-24T09:01:34.801Z,37.67
2023-02-24T09:04:06.449Z,36.67
2023-02-24T09:06:52.546Z,36.30
2023-02-24T09:09:23.905Z,35.73
2023-02-24T09:12:00.130Z,36.10
2023-02-24T09:14:36.358Z,34.57
2023-02-24T09:17:07.046Z,35.40
2023-02-24T09:19:52.425Z,39.10
2023-02-24T09:22:32.779Z,35.70
2023-02-24T09:25:21.769Z,34.53
2023-02-24T09:28:08.939Z,30.90
2023-02-24T09:30:51.956Z,30.73
2023-02-24T09:33:28.162Z,41.03
2023-02-24T09:36:09.812Z,32.77
2023-02-24T09:38:59.979Z,43.40
2023-02-24T09:41:34.052Z,30.93
2023-02-24T09:44:18.162Z,31.90
2023-02-24T09:47:37.260Z,33.40
2023-02-24T09:50:32.962Z,32.43
2023-02-24T09:53:17.308Z,29.73
2023-02-24T09:56:00.257Z,31.97
2023-02-24T09:58:43.767Z,28.50
2023-02-24T10:01:33.650Z,29.73
2023-02-24T10:04:36.456Z,30.03
2023-02-24T10:07:15.690Z,32.60
2023-02-24T10:10:19.384Z,34.00
2023-02-24T10:12:54.506Z,27.97
2023-02-24T10:15:48.662Z,33.90
2023-02-24T10:19:00.932Z,27.17
2023-02-24T10:21:49.463Z,51.20
2023-02-24T10:24:22.961Z,26.33
2023-02-24T10:27:08.318Z,24.00
2023-02-24T10:29:47.965Z,23.17
2023-02-24T10:32:33.825Z,20.03
2023-02-24T10:35:02.643Z,15.73
2023-02-24T10:37:30.364Z,16.77
2023-02-24T10:40:09.480Z,21.43
2023-02-24T10:42:47.833Z,15.50
2023-02-24T10:45:27.350Z,14.50
2023-02-24T10:47:57.739Z,16.50
2023-02-24T10:50:31.948Z,15.43
2023-02-24T10:53:28.582Z,18.60
2023-02-24T10:56:17.369Z,15.37
2023-02-24T10:58:53.790Z,13.67
2023-02-24T11:01:55.709Z,17.50
2023-02-24T11:04:53.893Z,14.57
2023-02-24T11:07:24.958Z,14.47
2023-02-24T11:10:13.522Z,9.63
2023-02-24T11:13:10.284Z,11.77
2023-02-24T11:16:02.843Z,13.50
2023-02-24T11:18:31.745Z,10.60
2023-02-24T11:21:02.615Z,10.97
2023-02-24T11:23:35.343Z,11.03
2023-02-24T11:26:16.590Z,13.47
2023-02-24T11:29:03.916Z,10.27
2023-02-24T11:31:43.957Z,9.73
2023-02-24T11:34:21.475Z,10.47
2023-02-24T11:37:14.558Z,10.17
2023-02-24T11:39:48.133Z,10.87
2023-02-24T11:42:22.997Z,10.77
2023-02-24T11:45:09.462Z,12.77
2023-02-24T11:47:45.587Z,9.03
2023-02-24T11:50:46.692Z,8.73
2023-02-24T11:53:20.077Z,11.60
2023-02-24T11:55:53.818Z,13.60
2023-02-24T11:58:28.040Z,10.77
2023-02-24T12:01:31.318Z,9.83
2023-02-24T12:04:11.009Z,7.50
2023-02-24T12:06:47.676Z,9.67
2023-02-24T12:09:24.850Z,8.73
2023-02-24T12:12:02.173Z,8.87
2023-02-24T12:14:42.963Z,8.33
2023-02-24T12:17:34.897Z,8.90
2023-02-24T12:20:27.813Z,9.97
2023-02-24T12:23:23.074Z,8.60
2023-02-24T12:26:09.116Z,8.40
2023-02-24T12:28:45.745Z,8.80
2023-02-24T12:31:53.324Z,8.23
2023-02-24T12:34:41.518Z,11.10
2023-02-24T12:37:40.278Z,10.27
2023-02-24T12:40:33.581Z,10.13
2023-02-24T13:04:45.539Z,10.23
2023-02-24T13:07:22.131Z,9.47
2023-02-24T13:10:12.680Z,9.47
2023-02-24T13:12:49.308Z,9.90
2023-02-24T13:15:23.344Z,8.70
2023-02-24T13:17:57.003Z,10.33
2023-02-24T13:20:33.206Z,9.57
2023-02-24T13:23:03.521Z,13.13
2023-02-24T13:25:39.690Z,15.47
2023-02-24T13:28:24.662Z,14.63
2023-02-24T13:31:05.000Z,12.60
2023-02-24T13:33:40.108Z,10.00
2023-02-24T13:36:21.400Z,8.63
2023-02-24T13:39:07.048Z,9.83
2023-02-24T13:41:41.845Z,8.23
2023-02-24T13:44:32.027Z,8.57
2023-02-24T13:47:11.722Z,7.50
2023-02-24T13:50:06.736Z,7.07
2023-02-24T13:52:42.281Z,8.37
2023-02-24T13:55:12.874Z,8.27
2023-02-24T13:57:58.455Z,9.47
2023-02-24T14:01:03.651Z,11.50
2023-02-24T14:03:32.142Z,8.83
2023-02-24T14:06:01.557Z,7.27
2023-02-24T14:08:47.387Z,7.90
2023-02-24T14:11:16.373Z,8.53
2023-02-24T14:13:51.005Z,5.90
2023-02-24T14:16:25.373Z,7.87
2023-02-24T14:18:54.526Z,6.50
2023-02-24T14:21:25.192Z,4.67
2023-02-24T14:23:56.661Z,7.60
2023-02-24T14:26:28.215Z,5.10
2023-02-24T14:29:00.695Z,7.30
2023-02-24T14:31:30.049Z,4.57
2023-02-24T14:34:01.622Z,6.13
2023-02-24T14:36:35.540Z,5.10
2023-02-24T14:39:17.691Z,5.37
2023-02-24T14:41:46.326Z,5.83
2023-02-24T14:44:28.071Z,6.43
2023-02-24T14:47:02.767Z,6.03
2023-02-24T14:49:35.297Z,7.13
2023-02-24T14:52:11.856Z,9.13
2023-02-24T14:54:54.221Z,4.93
2023-02-24T14:57:28.148Z,4.33
2023-02-24T15:00:02.387Z,7.80
2023-02-24T15:02:33.704Z,6.33
2023-02-24T15:05:01.486Z,5.13
2023-02-24T15:07:32.215Z,4.23
2023-02-24T15:10:03.773Z,6.17
2023-02-24T15:12:33.393Z,5.43
2023-02-24T15:15:34.887Z,5.93
2023-02-24T15:18:09.901Z,5.83
2023-02-24T15:20:40.638Z,6.17
2023-02-24T15:23:26.923Z,9.07
2023-02-24T15:25:54.541Z,5.43
2023-02-24T15:28:26.763Z,5.90
2023-02-24T15:31:09.774Z,6.33
2023-02-24T15:33:44.175Z,5.33
2023-02-24T15:36:18.664Z,6.73
2023-02-24T15:38:47.025Z,7.13
2023-02-24T15:41:17.281Z,6.10
2023-02-24T15:43:48.186Z,6.63
2023-02-24T15:46:21.167Z,7.47
2023-02-24T15:48:54.445Z,7.27
2023-02-24T15:51:41.045Z,6.90
2023-02-24T15:54:24.133Z,6.03
2023-02-24T15:56:52.009Z,6.67
2023-02-24T15:59:23.004Z,5.07
2023-02-24T16:01:52.185Z,5.83
2023-02-24T16:04:21.714Z,5.30
2023-02-24T16:06:56.509Z,6.83
2023-02-24T16:09:39.019Z,5.47
2023-02-24T16:12:32.352Z,5.30
2023-02-24T16:15:02.132Z,4.47
2023-02-24T16:17:34.189Z,4.97
2023-02-24T16:20:02.770Z,4.10
2023-02-24T16:22:30.930Z,5.00
2023-02-24T16:24:58.584Z,5.00
2023-02-24T16:27:29.453Z,5.10
2023-02-24T16:29:58.165Z,5.10
2023-02-24T16:32:28.864Z,4.53
2023-02-24T16:34:57.101Z,4.87
2023-02-24T16:37:29.002Z,3.63
2023-02-24T16:39:59.182Z,3.97
2023-02-24T16:42:26.757Z,4.83
2023-02-24T16:44:54.373Z,5.80
2023-02-24T16:47:24.130Z,4.23
2023-02-24T16:49:55.439Z,6.87
2023-02-24T16:52:24.754Z,4.57
2023-02-24T16:54:52.474Z,5.60
2023-02-24T16:57:25.314Z,5.93
2023-02-24T16:59:52.974Z,5.80
2023-02-24T17:02:24.680Z,4.93
2023-02-24T17:04:52.465Z,3.67
2023-02-24T17:07:21.326Z,6.20
2023-02-24T17:09:49.012Z,4.97
2023-02-24T17:12:21.840Z,6.30
2023-02-24T17:14:49.637Z,7.17
2023-02-24T17:17:20.651Z,7.10
2023-02-24T17:19:48.246Z,5.13
2023-02-24T17:22:18.679Z,6.83
2023-02-24T17:24:51.867Z,6.20
2023-02-24T17:27:19.460Z,6.50
2023-02-24T17:29:47.052Z,5.47
2023-02-24T17:32:14.963Z,5.20
2023-02-24T17:34:44.173Z,6.50
2023-02-24T17:37:11.724Z,4.87
2023-02-24T17:39:39.294Z,6.13
2023-02-24T17:42:07.069Z,6.30
2023-02-24T17:44:34.640Z,4.73
2023-02-24T17:47:02.224Z,4.17
2023-02-24T17:49:29.818Z,5.70
2023-02-24T17:51:57.400Z,5.40
2023-02-24T17:54:26.312Z,5.90
2023-02-24T17:56:54.155Z,4.47
2023-02-24T17:59:21.739Z,5.03
2023-02-24T18:01:49.730Z,5.13
2023-02-24T18:04:18.525Z,8.23
2023-02-24T18:06:47.064Z,6.73
2023-02-24T18:09:14.751Z,5.93
2023-02-24T18:11:45.716Z,8.07
2023-02-24T18:14:16.905Z,4.33
2023-02-24T18:16:44.586Z,6.97
2023-02-24T18:19:12.296Z,8.60
2023-02-24T18:21:39.945Z,3.53
2023-02-24T18:24:08.351Z,6.10
2023-02-24T18:26:36.406Z,5.23
2023-02-24T18:29:04.041Z,7.57
2023-02-24T18:31:33.258Z,4.57
2023-02-24T18:34:01.612Z,7.63
2023-02-24T18:36:29.236Z,4.93
2023-02-24T18:38:57.930Z,5.10
2023-02-24T18:41:26.424Z,6.53
2023-02-24T18:43:56.790Z,5.23
2023-02-24T18:46:25.651Z,3.27
2023-02-24T18:48:53.545Z,5.10
2023-02-24T18:51:22.597Z,5.30
2023-02-24T18:53:52.743Z,5.23
2023-02-24T18:56:26.498Z,5.77
2023-02-24T18:58:56.477Z,4.47
2023-02-24T19:01:41.277Z,5.27
2023-02-24T19:04:09.423Z,4.87
2023-02-24T19:06:37.070Z,3.97
2023-02-24T19:09:09.658Z,5.33
2023-02-24T19:11:39.451Z,4.97
2023-02-24T19:14:07.125Z,6.40
2023-02-24T19:16:36.279Z,5.33
2023-02-24T19:19:04.047Z,5.90
2023-02-24T19:21:33.214Z,4.77
2023-02-24T19:24:03.648Z,4.70
2023-02-24T19:26:31.534Z,6.67
2023-02-24T19:28:59.231Z,4.97
2023-02-24T19:31:32.144Z,5.57
2023-02-24T19:34:03.081Z,6.93
2023-02-24T19:36:32.168Z,6.43
2023-02-24T19:39:00.316Z,6.63
2023-02-24T19:41:28.171Z,8.07
2023-02-24T19:43:55.936Z,7.50
2023-02-24T19:46:24.066Z,6.70
2023-02-24T19:48:52.056Z,7.63
2023-02-24T19:51:22.615Z,7.60
2023-02-24T19:53:58.351Z,5.20
2023-02-24T19:56:30.457Z,6.90
2023-02-24T19:58:59.985Z,5.47
2023-02-24T20:01:28.826Z,5.17
2023-02-24T20:04:04.282Z,7.10
2023-02-24T20:06:35.711Z,7.00
2023-02-24T20:09:15.479Z,6.77
2023-02-24T20:11:45.076Z,8.60
2023-02-24T20:14:14.602Z,7.53
2023-02-24T20:16:43.468Z,6.83
2023-02-24T20:19:12.956Z,7.03
2023-02-24T20:21:44.280Z,6.00
2023-02-24T20:24:14.827Z,7.20
2023-02-24T20:26:46.997Z,7.23
2023-02-24T20:29:17.106Z,6.23
2023-02-24T20:31:46.412Z,6.83
2023-02-24T20:34:16.520Z,7.83
2023-02-24T20:36:44.326Z,5.23
2023-02-24T20:39:12.400Z,5.83
2023-02-24T20:41:40.846Z,6.67
2023-02-24T20:44:09.421Z,7.57
2023-02-24T20:46:37.971Z,7.40
2023-02-24T20:49:07.934Z,7.80
2023-02-24T20:51:39.691Z,6.10
2023-02-24T20:54:09.462Z,8.30
2023-02-24T20:56:41.732Z,7.83
2023-02-24T20:59:13.506Z,8.40
2023-02-24T21:01:42.152Z,6.87
2023-02-24T21:04:10.877Z,8.13
2023-02-24T21:06:38.589Z,8.17
2023-02-24T21:09:06.450Z,8.13
2023-02-24T21:11:34.504Z,7.40
2023-02-24T21:14:02.683Z,8.50
2023-02-24T21:16:30.246Z,10.57
2023-02-24T21:18:58.775Z,7.87
2023-02-24T21:21:27.205Z,11.40
2023-02-24T21:23:55.811Z,7.53
2023-02-24T21:26:29.111Z,5.07
2023-02-24T21:29:02.850Z,12.17
2023-02-24T21:31:30.661Z,6.60
2023-02-24T21:33:58.383Z,6.83
2023-02-24T21:36:27.655Z,8.47
2023-02-24T21:38:56.009Z,6.30
2023-02-24T21:41:24.102Z,5.67
2023-02-24T21:43:54.825Z,6.67
2023-02-24T21:46:27.942Z,5.77
2023-02-24T21:48:57.640Z,5.20
2023-02-24T21:51:30.111Z,6.53
2023-02-24T21:53:58.189Z,7.40
2023-02-24T21:56:28.484Z,4.93
2023-02-24T21:59:01.582Z,6.83
2023-02-24T22:01:34.175Z,5.43
2023-02-24T22:04:05.953Z,5.70
2023-02-24T22:06:35.321Z,4.97
2023-02-24T22:09:06.808Z,4.17
2023-02-24T22:11:36.458Z,7.90
2023-02-24T22:14:10.238Z,5.43
2023-02-24T22:16:38.870Z,5.57
2023-02-24T22:19:06.755Z,4.90
2023-02-24T22:21:34.558Z,5.10
2023-02-24T22:24:03.387Z,5.90
2023-02-24T22:26:32.228Z,6.57
2023-02-24T22:29:00.886Z,5.13
2023-02-24T22:31:30.728Z,7.00
2023-02-24T22:33:58.801Z,4.97
2023-02-24T22:36:38.770Z,5.93
2023-02-24T22:39:08.815Z,6.03
2023-02-24T22:41:37.330Z,5.83
2023-02-24T22:44:05.798Z,6.30
2023-02-24T22:46:36.340Z,8.73
2023-02-24T22:49:07.128Z,6.73
2023-02-24T22:51:34.795Z,6.70
2023-02-24T22:54:03.183Z,5.23
2023-02-24T22:56:31.910Z,6.13
2023-02-24T22:59:00.680Z,5.50
2023-02-24T23:01:35.317Z,5.83
2023-02-24T23:04:07.685Z,5.10
2023-02-24T23:06:36.341Z,5.33
2023-02-24T23:09:05.435Z,5.40
2023-02-24T23:11:39.102Z,4.33
2023-02-24T23:14:10.208Z,6.13
2023-02-24T23:16:38.687Z,7.40
2023-02-24T23:19:13.114Z,4.93
2023-02-24T23:21:45.724Z,3.67
2023-02-24T23:24:14.762Z,7.50
2023-02-24T23:26:54.151Z,4.87
2023-02-24T23:29:23.115Z,7.93
2023-02-24T23:31:54.931Z,7.47
2023-02-24T23:34:25.725Z,11.40
2023-02-24T23:36:53.374Z,7.73
2023-02-24T23:39:23.656Z,9.00
2023-02-24T23:41:56.703Z,7.30
2023-02-24T23:44:26.820Z,7.90
2023-02-24T23:46:54.933Z,8.10
2023-02-24T23:49:23.107Z,12.33
2023-02-24T23:51:50.704Z,7.40
2023-02-24T23:54:19.164Z,8.30
2023-02-24T23:56:47.172Z,9.63
2023-02-24T23:59:15.353Z,10.00
